createdAt,value
2023-08-07T00:00:13.062Z,13.39
2023-08-07T00:01:13.100Z,13.41
2023-08-07T00:02:13.101Z,13.42
2023-08-07T00:03:13.081Z,13.42
2023-08-07T00:04:13.020Z,13.41
2023-08-07T00:05:13.015Z,13.41
2023-08-07T00:06:13.003Z,13.41
2023-08-07T00:07:12.996Z,13.41
2023-08-07T00:08:12.999Z,13.38
2023-08-07T00:09:12.984Z,13.37
2023-08-07T00:10:12.959Z,13.39
2023-08-07T00:11:12.971Z,13.39
2023-08-07T00:12:12.934Z,13.38
2023-08-07T00:13:12.949Z,13.41
2023-08-07T00:14:12.921Z,13.39
2023-08-07T00:15:12.933Z,13.39
2023-08-07T00:16:12.966Z,13.41
2023-08-07T00:17:12.891Z,13.39
2023-08-07T00:18:12.903Z,13.39
2023-08-07T00:19:12.909Z,13.38
2023-08-07T00:20:12.870Z,13.38
2023-08-07T00:21:12.855Z,13.37
2023-08-07T00:22:12.835Z,13.37
2023-08-07T00:23:12.874Z,13.35
2023-08-07T00:24:12.815Z,13.33
2023-08-07T00:25:12.806Z,13.33
2023-08-07T00:26:12.805Z,13.31
2023-08-07T00:27:12.794Z,13.30
2023-08-07T00:28:12.785Z,13.30
2023-08-07T00:29:12.787Z,13.30
2023-08-07T00:30:12.754Z,13.30
2023-08-07T00:31:12.794Z,13.31
2023-08-07T00:32:12.742Z,13.31
2023-08-07T00:33:12.742Z,13.33
2023-08-07T00:34:12.730Z,13.30
2023-08-07T00:35:12.709Z,13.31
2023-08-07T00:36:12.704Z,13.31
2023-08-07T00:37:12.695Z,13.30
2023-08-07T00:38:12.673Z,13.28
2023-08-07T00:39:12.686Z,13.28
2023-08-07T00:40:12.665Z,13.28
2023-08-07T00:41:12.676Z,13.28
2023-08-07T00:42:12.636Z,13.27
2023-08-07T00:43:12.625Z,13.27
2023-08-07T00:44:12.644Z,13.27
2023-08-07T00:45:12.610Z,13.28
2023-08-07T00:46:12.773Z,13.28
2023-08-07T00:47:12.630Z,13.28
2023-08-07T00:48:12.594Z,13.27
2023-08-07T00:49:12.559Z,13.27
2023-08-07T00:50:12.569Z,13.25
2023-08-07T00:51:12.568Z,13.27
2023-08-07T00:52:12.544Z,13.28
2023-08-07T00:53:12.519Z,13.28
2023-08-07T00:54:12.508Z,13.27
2023-08-07T00:55:12.522Z,13.27
2023-08-07T00:56:12.492Z,13.27
2023-08-07T00:57:12.508Z,13.25
2023-08-07T00:58:12.477Z,13.23
2023-08-07T00:59:12.462Z,13.27
2023-08-07T01:00:12.465Z,13.22
2023-08-07T01:01:12.482Z,13.22
2023-08-07T01:02:12.450Z,13.22
2023-08-07T01:03:12.502Z,13.22
2023-08-07T01:04:12.408Z,13.19
2023-08-07T01:05:12.430Z,13.19
2023-08-07T01:06:12.387Z,13.22
2023-08-07T01:07:12.394Z,13.19
2023-08-07T01:08:12.387Z,13.18
2023-08-07T01:09:12.358Z,13.18
2023-08-07T01:10:12.350Z,13.16
2023-08-07T01:11:12.374Z,13.18
2023-08-07T01:12:12.321Z,13.16
2023-08-07T01:13:12.314Z,13.18
2023-08-07T01:14:12.322Z,13.15
2023-08-07T01:15:12.294Z,13.12
2023-08-07T01:16:12.316Z,13.11
2023-08-07T01:17:12.275Z,13.11
2023-08-07T01:18:12.257Z,13.09
2023-08-07T01:19:12.253Z,13.09
2023-08-07T01:20:12.253Z,13.08
2023-08-07T01:21:12.254Z,13.08
2023-08-07T01:22:12.228Z,13.08
2023-08-07T01:23:12.217Z,13.05
2023-08-07T01:24:12.190Z,13.04
2023-08-07T01:25:12.195Z,13.04
2023-08-07T01:26:12.191Z,13.05
2023-08-07T01:27:12.210Z,13.05
2023-08-07T01:28:12.156Z,13.08
2023-08-07T01:29:12.154Z,13.05
2023-08-07T01:30:12.186Z,13.04
2023-08-07T01:31:12.168Z,13.04
2023-08-07T01:32:12.129Z,13.04
2023-08-07T01:33:12.130Z,13.03
2023-08-07T01:34:12.098Z,13.01
2023-08-07T01:35:12.098Z,13.01
2023-08-07T01:36:12.101Z,13.00
2023-08-07T01:37:12.093Z,12.97
2023-08-07T01:38:12.058Z,12.95
2023-08-07T01:39:12.046Z,12.97
2023-08-07T01:40:12.032Z,12.97
2023-08-07T01:41:12.032Z,12.97
2023-08-07T01:42:12.036Z,12.95
2023-08-07T01:43:12.013Z,12.95
2023-08-07T01:44:12.010Z,12.97
2023-08-07T01:45:12.025Z,12.95
2023-08-07T01:46:12.024Z,12.97
2023-08-07T01:47:12.013Z,12.95
2023-08-07T01:48:11.969Z,12.95
2023-08-07T01:49:11.939Z,12.94
2023-08-07T01:50:11.936Z,12.93
2023-08-07T01:51:11.927Z,12.93
2023-08-07T01:52:11.943Z,12.94
2023-08-07T01:53:11.925Z,12.91
2023-08-07T01:54:11.883Z,12.91
2023-08-07T01:55:11.887Z,12.91
2023-08-07T01:56:11.872Z,12.90
2023-08-07T01:57:11.858Z,12.91
2023-08-07T01:58:11.903Z,12.91
2023-08-07T01:59:11.854Z,12.87
2023-08-07T02:00:11.837Z,12.87
2023-08-07T02:01:11.835Z,12.87
2023-08-07T02:02:11.814Z,12.90
2023-08-07T02:03:11.923Z,12.87
2023-08-07T02:04:11.786Z,12.87
2023-08-07T02:05:11.777Z,12.87
2023-08-07T02:06:11.768Z,12.90
2023-08-07T02:07:11.765Z,12.87
2023-08-07T02:08:11.744Z,12.90
2023-08-07T02:09:11.763Z,12.87
2023-08-07T02:10:11.730Z,12.91
2023-08-07T02:11:11.717Z,12.91
2023-08-07T02:12:11.717Z,12.93
2023-08-07T02:13:11.695Z,12.90
2023-08-07T02:14:11.699Z,12.91
2023-08-07T02:15:11.693Z,12.91
2023-08-07T02:16:11.715Z,12.87
2023-08-07T02:17:11.652Z,12.87
2023-08-07T02:18:11.649Z,12.86
2023-08-07T02:19:11.652Z,12.86
2023-08-07T02:20:11.627Z,12.83
2023-08-07T02:21:11.618Z,12.83
2023-08-07T02:22:11.597Z,12.83
2023-08-07T02:23:11.594Z,12.85
2023-08-07T02:24:11.613Z,12.85
2023-08-07T02:25:11.590Z,12.85
2023-08-07T02:26:11.552Z,12.85
2023-08-07T02:27:11.580Z,12.85
2023-08-07T02:28:11.547Z,12.86
2023-08-07T02:29:11.546Z,12.85
2023-08-07T02:30:11.570Z,12.85
2023-08-07T02:31:11.511Z,12.85
2023-08-07T02:32:11.503Z,12.86
2023-08-07T02:33:11.482Z,12.85
2023-08-07T02:34:11.486Z,12.83
2023-08-07T02:35:11.498Z,12.85
2023-08-07T02:36:11.464Z,12.87
2023-08-07T02:37:11.449Z,12.86
2023-08-07T02:38:11.443Z,12.85
2023-08-07T02:39:11.430Z,12.87
2023-08-07T02:40:11.456Z,12.90
2023-08-07T02:41:11.419Z,12.87
2023-08-07T02:42:11.407Z,12.86
2023-08-07T02:43:11.381Z,12.90
2023-08-07T02:44:11.389Z,12.83
2023-08-07T02:45:11.370Z,12.85
2023-08-07T02:46:11.530Z,12.85
2023-08-07T02:47:11.339Z,12.86
2023-08-07T02:48:11.337Z,12.83
2023-08-07T02:49:11.321Z,12.86
2023-08-07T02:50:11.326Z,12.83
2023-08-07T02:51:11.323Z,12.86
2023-08-07T02:52:11.293Z,12.87
2023-08-07T02:53:11.289Z,12.86
2023-08-07T02:54:11.270Z,12.85
2023-08-07T02:55:11.252Z,12.85
2023-08-07T02:56:11.291Z,12.85
2023-08-07T02:57:11.252Z,12.85
2023-08-07T02:58:11.234Z,12.85
2023-08-07T02:59:11.224Z,12.85
2023-08-07T03:00:11.226Z,12.83
2023-08-07T03:01:11.210Z,12.80
2023-08-07T03:02:11.228Z,12.82
2023-08-07T03:03:11.176Z,12.82
2023-08-07T03:04:11.173Z,12.79
2023-08-07T03:05:11.251Z,12.79
2023-08-07T03:06:11.150Z,12.78
2023-08-07T03:07:11.168Z,12.76
2023-08-07T03:08:11.144Z,12.76
2023-08-07T03:09:11.113Z,12.73
2023-08-07T03:10:11.133Z,12.72
2023-08-07T03:11:11.096Z,12.73
2023-08-07T03:12:11.133Z,12.75
2023-08-07T03:13:11.066Z,12.73
2023-08-07T03:14:11.072Z,12.75
2023-08-07T03:15:11.053Z,12.75
2023-08-07T03:16:11.105Z,12.75
2023-08-07T03:17:11.089Z,12.75
2023-08-07T03:18:11.022Z,12.75
2023-08-07T03:19:11.006Z,12.76
2023-08-07T03:20:11.007Z,12.75
2023-08-07T03:21:10.988Z,12.75
2023-08-07T03:22:10.986Z,12.75
2023-08-07T03:23:10.989Z,12.76
2023-08-07T03:24:13.022Z,12.78
2023-08-07T03:25:10.981Z,12.78
2023-08-07T03:27:10.929Z,12.80
2023-08-07T03:28:10.949Z,12.80
2023-08-07T03:29:10.907Z,12.82
2023-08-07T03:30:10.916Z,12.79
2023-08-07T03:31:10.935Z,12.78
2023-08-07T03:32:10.882Z,12.79
2023-08-07T03:33:10.874Z,12.78
2023-08-07T03:34:10.897Z,12.79
2023-08-07T03:35:10.848Z,12.76
2023-08-07T03:36:10.846Z,12.76
2023-08-07T03:37:10.835Z,12.75
2023-08-07T03:38:10.818Z,12.75
2023-08-07T03:39:10.831Z,12.73
2023-08-07T03:40:10.804Z,12.68
2023-08-07T03:41:10.831Z,12.68
2023-08-07T03:42:10.778Z,12.70
2023-08-07T03:43:10.770Z,12.67
2023-08-07T03:44:10.780Z,12.65
2023-08-07T03:45:10.759Z,12.65
2023-08-07T03:46:10.797Z,12.67
2023-08-07T03:47:10.740Z,12.65
2023-08-07T03:48:10.718Z,12.67
2023-08-07T03:49:10.715Z,12.70
2023-08-07T03:50:10.705Z,12.67
2023-08-07T03:51:10.708Z,12.68
2023-08-07T03:52:10.673Z,12.67
2023-08-07T03:53:10.661Z,12.68
2023-08-07T03:54:10.657Z,12.65
2023-08-07T03:55:10.672Z,12.67
2023-08-07T03:56:10.649Z,12.68
2023-08-07T03:57:10.620Z,12.68
2023-08-07T03:58:10.618Z,12.68
2023-08-07T03:59:10.610Z,12.68
2023-08-07T04:00:10.611Z,12.68
2023-08-07T04:01:10.640Z,12.67
2023-08-07T04:02:10.579Z,12.67
2023-08-07T04:03:10.638Z,12.65
2023-08-07T04:04:10.579Z,12.67
2023-08-07T04:05:10.560Z,12.67
2023-08-07T04:06:10.532Z,12.65
2023-08-07T04:07:10.524Z,12.64
2023-08-07T04:08:10.522Z,12.67
2023-08-07T04:09:10.515Z,12.64
2023-08-07T04:10:10.509Z,12.61
2023-08-07T04:11:10.478Z,12.62
2023-08-07T04:12:10.486Z,12.61
2023-08-07T04:13:10.459Z,12.60
2023-08-07T04:14:10.460Z,12.60
2023-08-07T04:15:10.471Z,12.58
2023-08-07T04:16:10.484Z,12.58
2023-08-07T04:17:10.411Z,12.58
2023-08-07T04:18:10.414Z,12.58
2023-08-07T04:19:10.395Z,12.55
2023-08-07T04:20:10.388Z,12.54
2023-08-07T04:21:10.388Z,12.53
2023-08-07T04:22:10.368Z,12.49
2023-08-07T04:23:10.364Z,12.46
2023-08-07T04:24:10.350Z,12.43
2023-08-07T04:25:10.330Z,12.43
2023-08-07T04:26:10.359Z,12.42
2023-08-07T04:27:10.312Z,12.40
2023-08-07T04:28:10.304Z,12.40
2023-08-07T04:29:10.297Z,12.39
2023-08-07T04:30:10.288Z,12.37
2023-08-07T04:31:10.350Z,12.36
2023-08-07T04:32:10.271Z,12.32
2023-08-07T04:33:10.292Z,12.32
2023-08-07T04:34:10.242Z,12.29
2023-08-07T04:35:10.236Z,12.29
2023-08-07T04:36:10.248Z,12.27
2023-08-07T04:37:10.208Z,12.27
2023-08-07T04:38:10.226Z,12.25
2023-08-07T04:39:10.189Z,12.25
2023-08-07T04:40:10.187Z,12.27
2023-08-07T04:41:10.200Z,12.27
2023-08-07T04:42:10.164Z,12.25
2023-08-07T04:43:10.148Z,12.24
2023-08-07T04:44:10.147Z,12.22
2023-08-07T04:45:10.135Z,12.21
2023-08-07T04:46:10.153Z,12.17
2023-08-07T04:47:10.148Z,12.17
2023-08-07T04:48:10.108Z,12.15
2023-08-07T04:49:10.091Z,12.12
2023-08-07T04:50:10.084Z,12.12
2023-08-07T04:51:10.071Z,12.13
2023-08-07T04:52:21.005Z,12.15
2023-08-07T04:53:10.055Z,12.13
2023-08-07T04:54:10.042Z,12.15
2023-08-07T04:55:10.031Z,12.13
2023-08-07T04:56:10.022Z,12.13
2023-08-07T04:57:10.032Z,12.10
2023-08-07T04:58:10.002Z,12.10
2023-08-07T04:59:09.989Z,12.10
2023-08-07T05:00:10.043Z,12.12
2023-08-07T05:01:10.007Z,12.10
2023-08-07T05:02:10.037Z,12.10
2023-08-07T05:03:10.127Z,12.10
2023-08-07T05:04:10.007Z,12.10
2023-08-07T05:05:09.924Z,12.09
2023-08-07T05:06:10.596Z,12.09
2023-08-07T05:07:09.902Z,12.10
2023-08-07T05:08:09.940Z,12.09
2023-08-07T05:09:09.876Z,12.10
2023-08-07T05:10:09.887Z,12.07
2023-08-07T05:11:09.866Z,12.10
2023-08-07T05:12:09.859Z,12.10
2023-08-07T05:13:09.890Z,12.07
2023-08-07T05:14:09.833Z,12.09
2023-08-07T05:15:09.835Z,12.09
2023-08-07T05:16:09.812Z,12.07
2023-08-07T05:17:09.831Z,12.06
2023-08-07T05:18:09.824Z,12.07
2023-08-07T05:19:09.780Z,12.06
2023-08-07T05:20:09.781Z,12.06
2023-08-07T05:21:09.757Z,12.07
2023-08-07T05:22:09.748Z,12.07
2023-08-07T05:23:09.758Z,12.07
2023-08-07T05:24:09.727Z,12.07
2023-08-07T05:25:09.724Z,12.09
2023-08-07T05:26:09.712Z,12.09
2023-08-07T05:27:09.702Z,12.07
2023-08-07T05:28:09.706Z,12.07
2023-08-07T05:29:09.677Z,12.09
2023-08-07T05:30:09.665Z,12.10
2023-08-07T05:31:09.679Z,12.10
2023-08-07T05:32:09.650Z,12.10
2023-08-07T05:33:09.638Z,12.12
2023-08-07T05:34:09.655Z,12.12
2023-08-07T05:35:09.637Z,12.10
2023-08-07T05:36:09.602Z,12.12
2023-08-07T05:37:09.606Z,12.10
2023-08-07T05:38:09.582Z,12.09
2023-08-07T05:39:09.611Z,12.12
2023-08-07T05:40:09.564Z,12.12
2023-08-07T05:41:09.553Z,12.12
2023-08-07T05:42:09.543Z,12.13
2023-08-07T05:43:09.535Z,12.15
2023-08-07T05:44:09.538Z,12.13
2023-08-07T05:45:09.519Z,12.13
2023-08-07T05:46:09.520Z,12.17
2023-08-07T05:47:09.502Z,12.15
2023-08-07T05:48:09.477Z,12.17
2023-08-07T05:49:09.508Z,12.17
2023-08-07T05:50:09.462Z,12.18
2023-08-07T05:51:09.455Z,12.20
2023-08-07T05:52:09.463Z,12.20
2023-08-07T05:53:09.436Z,12.21
2023-08-07T05:54:09.420Z,12.21
2023-08-07T05:55:09.438Z,12.22
2023-08-07T05:56:09.466Z,12.22
2023-08-07T05:57:09.389Z,12.22
2023-08-07T05:58:09.373Z,12.20
2023-08-07T05:59:09.381Z,12.21
2023-08-07T06:00:09.390Z,12.20
2023-08-07T06:01:09.350Z,12.22
2023-08-07T06:02:09.338Z,12.22
2023-08-07T06:03:09.332Z,12.22
2023-08-07T06:04:09.333Z,12.24
2023-08-07T06:05:09.318Z,12.24
2023-08-07T06:06:09.310Z,12.25
2023-08-07T06:07:09.302Z,12.27
2023-08-07T06:08:09.272Z,12.27
2023-08-07T06:09:09.269Z,12.27
2023-08-07T06:10:09.247Z,12.28
2023-08-07T06:11:09.310Z,12.28
2023-08-07T06:12:09.230Z,12.28
2023-08-07T06:13:11.002Z,12.29
2023-08-07T06:14:09.221Z,12.31
2023-08-07T06:15:09.209Z,12.31
2023-08-07T06:16:09.254Z,12.29
2023-08-07T06:17:09.191Z,12.29
2023-08-07T06:18:09.177Z,12.29
2023-08-07T06:19:20.756Z,12.28
2023-08-07T06:20:10.417Z,12.27
2023-08-07T06:21:09.194Z,12.27
2023-08-07T06:22:09.131Z,12.27
2023-08-07T06:23:09.137Z,12.25
2023-08-07T06:24:09.114Z,12.27
2023-08-07T06:25:09.117Z,12.28
2023-08-07T06:26:09.110Z,12.28
2023-08-07T06:27:09.091Z,12.28
2023-08-07T06:28:09.081Z,12.28
2023-08-07T06:29:09.064Z,12.29
2023-08-07T06:30:09.054Z,12.29
2023-08-07T06:31:09.085Z,12.31
2023-08-07T06:32:09.107Z,12.29
2023-08-07T06:33:10.471Z,12.29
2023-08-07T06:34:09.009Z,12.32
2023-08-07T06:35:09.033Z,12.29
2023-08-07T06:36:08.989Z,12.31
2023-08-07T06:37:08.998Z,12.31
2023-08-07T06:38:08.969Z,12.29
2023-08-07T06:39:08.960Z,12.31
2023-08-07T06:40:08.940Z,12.31
2023-08-07T06:41:08.995Z,12.29
2023-08-07T06:42:08.949Z,12.31
2023-08-07T06:43:08.918Z,12.32
2023-08-07T06:44:08.924Z,12.32
2023-08-07T06:45:08.901Z,12.35
2023-08-07T06:46:08.920Z,12.35
2023-08-07T06:47:10.952Z,12.31
2023-08-07T06:48:08.864Z,12.29
2023-08-07T06:49:08.860Z,12.31
2023-08-07T06:50:08.851Z,12.32
2023-08-07T06:51:08.839Z,12.31
2023-08-07T06:52:08.855Z,12.31
2023-08-07T06:53:08.824Z,12.35
2023-08-07T06:54:08.821Z,12.32
2023-08-07T06:55:08.797Z,12.31
2023-08-07T06:56:08.779Z,12.29
2023-08-07T06:57:08.821Z,12.29
2023-08-07T06:58:08.772Z,12.28
2023-08-07T06:59:08.764Z,12.29
2023-08-07T07:00:08.756Z,12.29
2023-08-07T07:01:08.742Z,12.29
2023-08-07T07:02:08.719Z,12.31
2023-08-07T07:03:08.822Z,12.35
2023-08-07T07:04:08.716Z,12.35
2023-08-07T07:05:08.691Z,12.37
2023-08-07T07:06:08.674Z,12.35
2023-08-07T07:07:08.683Z,12.32
2023-08-07T07:08:08.691Z,12.31
2023-08-07T07:09:08.650Z,12.31
2023-08-07T07:10:08.642Z,12.35
2023-08-07T07:11:08.626Z,12.32
2023-08-07T07:12:08.621Z,12.32
2023-08-07T07:13:08.631Z,12.35
2023-08-07T07:14:08.612Z,12.31
2023-08-07T07:15:08.591Z,12.32
2023-08-07T07:16:08.611Z,12.31
2023-08-07T07:17:08.608Z,12.32
2023-08-07T07:18:08.579Z,12.35
2023-08-07T07:19:08.544Z,12.36
2023-08-07T07:20:08.536Z,12.32
2023-08-07T07:21:08.533Z,12.35
2023-08-07T07:22:08.514Z,12.35
2023-08-07T07:23:08.562Z,12.35
2023-08-07T07:24:08.500Z,12.37
2023-08-07T07:25:08.494Z,12.37
2023-08-07T07:26:08.476Z,12.37
2023-08-07T07:27:08.481Z,12.37
2023-08-07T07:28:08.450Z,12.36
2023-08-07T07:29:08.468Z,12.37
2023-08-07T07:30:08.434Z,12.37
2023-08-07T07:31:08.450Z,12.37
2023-08-07T07:32:08.422Z,12.37
2023-08-07T07:33:08.406Z,12.39
2023-08-07T07:34:08.415Z,12.37
2023-08-07T07:35:08.400Z,12.37
2023-08-07T07:36:08.369Z,12.37
2023-08-07T07:37:08.365Z,12.36
2023-08-07T07:38:08.355Z,12.37
2023-08-07T07:39:08.382Z,12.39
2023-08-07T07:40:08.327Z,12.39
2023-08-07T07:41:08.326Z,12.40
2023-08-07T07:42:08.313Z,12.40
2023-08-07T07:43:08.305Z,12.42
2023-08-07T07:44:08.323Z,12.40
2023-08-07T07:45:08.284Z,12.40
2023-08-07T07:46:08.368Z,12.40
2023-08-07T07:47:09.633Z,12.42
2023-08-07T07:48:08.247Z,12.43
2023-08-07T07:49:08.244Z,12.42
2023-08-07T07:50:08.247Z,12.42
2023-08-07T07:51:08.228Z,12.42
2023-08-07T07:52:08.212Z,12.43
2023-08-07T07:53:08.216Z,12.45
2023-08-07T07:54:14.923Z,12.43
2023-08-07T07:55:08.199Z,12.45
2023-08-07T07:56:08.170Z,12.45
2023-08-07T07:57:08.157Z,12.46
2023-08-07T07:58:08.147Z,12.46
2023-08-07T07:59:09.395Z,12.49
2023-08-07T08:00:08.126Z,12.49
2023-08-07T08:01:08.371Z,12.47
2023-08-07T08:02:08.133Z,12.47
2023-08-07T08:03:08.163Z,12.47
2023-08-07T08:04:08.160Z,12.49
2023-08-07T08:05:08.078Z,12.47
2023-08-07T08:06:08.086Z,12.47
2023-08-07T08:07:08.059Z,12.46
2023-08-07T08:08:08.048Z,12.47
2023-08-07T08:09:08.042Z,12.47
2023-08-07T08:10:08.029Z,12.46
2023-08-07T08:11:08.042Z,12.49
2023-08-07T08:12:08.007Z,12.50
2023-08-07T08:13:08.020Z,12.47
2023-08-07T08:14:07.988Z,12.50
2023-08-07T08:15:07.976Z,12.47
2023-08-07T08:16:08.048Z,12.47
2023-08-07T08:17:07.974Z,12.45
2023-08-07T08:18:08.024Z,12.47
2023-08-07T08:19:07.937Z,12.47
2023-08-07T08:20:07.930Z,12.50
2023-08-07T08:21:07.920Z,12.50
2023-08-07T08:22:07.923Z,12.50
2023-08-07T08:23:07.906Z,12.49
2023-08-07T08:24:07.879Z,12.49
2023-08-07T08:25:07.899Z,12.49
2023-08-07T08:26:07.862Z,12.50
2023-08-07T08:27:07.868Z,12.53
2023-08-07T08:28:07.857Z,12.55
2023-08-07T08:29:07.835Z,12.54
2023-08-07T08:30:07.937Z,12.57
2023-08-07T08:31:07.867Z,12.55
2023-08-07T08:32:07.804Z,12.57
2023-08-07T08:33:07.865Z,12.57
2023-08-07T08:34:07.788Z,12.54
2023-08-07T08:35:07.776Z,12.50
2023-08-07T08:36:07.767Z,12.54
2023-08-07T08:37:07.774Z,12.50
2023-08-07T08:38:07.770Z,12.50
2023-08-07T08:39:07.743Z,12.53
2023-08-07T08:40:07.857Z,12.54
2023-08-07T08:41:07.713Z,12.54
2023-08-07T08:42:07.789Z,12.55
2023-08-07T08:43:07.721Z,12.55
2023-08-07T08:44:07.691Z,12.55
2023-08-07T08:45:07.688Z,12.58
2023-08-07T08:46:08.893Z,12.58
2023-08-07T08:47:07.685Z,12.61
2023-08-07T08:48:07.684Z,12.61
2023-08-07T08:49:07.633Z,12.61
2023-08-07T08:50:07.629Z,12.61
2023-08-07T08:51:07.608Z,12.62
2023-08-07T08:52:07.618Z,12.65
2023-08-07T08:53:08.956Z,12.67
2023-08-07T08:54:07.597Z,12.65
2023-08-07T08:55:07.575Z,12.65
2023-08-07T08:56:07.558Z,12.70
2023-08-07T08:57:07.562Z,12.72
2023-08-07T08:58:07.529Z,12.72
2023-08-07T08:59:07.619Z,12.70
2023-08-07T09:00:07.528Z,12.72
2023-08-07T09:01:07.551Z,12.72
2023-08-07T09:02:07.514Z,12.73
2023-08-07T09:03:07.594Z,12.72
2023-08-07T09:04:07.504Z,12.75
2023-08-07T09:05:07.467Z,12.76
2023-08-07T09:06:07.456Z,12.78
2023-08-07T09:07:07.450Z,12.78
2023-08-07T09:08:07.438Z,12.76
2023-08-07T09:09:07.443Z,12.79
2023-08-07T09:10:07.470Z,12.79
2023-08-07T09:11:07.400Z,12.79
2023-08-07T09:12:07.391Z,12.79
2023-08-07T09:13:07.389Z,12.80
2023-08-07T09:14:07.400Z,12.82
2023-08-07T09:15:07.358Z,12.85
2023-08-07T09:16:07.371Z,12.85
2023-08-07T09:17:07.401Z,12.87
2023-08-07T09:18:07.329Z,12.83
2023-08-07T09:19:07.317Z,12.80
2023-08-07T09:20:07.327Z,12.80
2023-08-07T09:21:07.300Z,12.80
2023-08-07T09:22:07.291Z,12.80
2023-08-07T09:23:07.289Z,12.80
2023-08-07T09:24:07.274Z,12.82
2023-08-07T09:25:07.271Z,12.82
2023-08-07T09:26:07.242Z,12.86
2023-08-07T09:27:07.246Z,12.86
2023-08-07T09:28:07.297Z,12.87
2023-08-07T09:29:07.212Z,12.90
2023-08-07T09:30:07.217Z,12.93
2023-08-07T09:31:07.227Z,12.94
2023-08-07T09:32:07.184Z,12.97
2023-08-07T09:33:07.350Z,12.97
2023-08-07T09:34:07.176Z,13.01
2023-08-07T09:35:07.238Z,13.01
2023-08-07T09:36:07.152Z,13.01
2023-08-07T09:37:07.133Z,13.05
2023-08-07T09:38:07.120Z,13.04
2023-08-07T09:39:07.142Z,13.04
2023-08-07T09:40:07.121Z,13.05
2023-08-07T09:41:07.096Z,13.08
2023-08-07T09:42:07.078Z,13.08
2023-08-07T09:43:07.083Z,13.08
2023-08-07T09:44:07.068Z,13.08
2023-08-07T09:45:07.070Z,13.09
2023-08-07T09:46:07.097Z,13.05
2023-08-07T09:47:07.028Z,13.05
2023-08-07T09:48:07.049Z,13.08
2023-08-07T09:49:07.008Z,13.08
2023-08-07T09:50:07.065Z,13.05
2023-08-07T09:51:07.005Z,13.05
2023-08-07T09:52:06.980Z,13.05
2023-08-07T09:53:06.959Z,13.04
2023-08-07T09:54:06.961Z,13.05
2023-08-07T09:55:06.951Z,13.05
2023-08-07T09:56:07.027Z,13.01
2023-08-07T09:57:06.920Z,12.98
2023-08-07T09:58:06.941Z,12.98
2023-08-07T09:59:06.914Z,12.98
2023-08-07T10:00:06.904Z,13.00
2023-08-07T10:01:07.029Z,12.98
2023-08-07T10:02:06.892Z,12.98
2023-08-07T10:03:06.991Z,13.00
2023-08-07T10:04:06.877Z,12.98
2023-08-07T10:05:06.838Z,13.00
2023-08-07T10:06:06.838Z,12.97
2023-08-07T10:07:06.840Z,13.00
2023-08-07T10:08:06.822Z,13.00
2023-08-07T10:09:06.795Z,12.94
2023-08-07T10:10:06.794Z,12.95
2023-08-07T10:11:06.781Z,12.94
2023-08-07T10:12:06.793Z,12.94
2023-08-07T10:13:06.771Z,12.97
2023-08-07T10:14:06.752Z,13.00
2023-08-07T10:15:06.768Z,13.01
2023-08-07T10:16:06.774Z,13.01
2023-08-07T10:17:06.768Z,13.01
2023-08-07T10:18:06.732Z,13.01
2023-08-07T10:19:06.694Z,12.98
2023-08-07T10:20:06.700Z,12.94
2023-08-07T10:21:06.687Z,12.94
2023-08-07T10:22:06.673Z,12.97
2023-08-07T10:23:06.685Z,12.97
2023-08-07T10:24:06.655Z,12.95
2023-08-07T10:25:06.645Z,13.00
2023-08-07T10:26:06.626Z,13.00
2023-08-07T10:27:06.629Z,13.03
2023-08-07T10:28:06.632Z,13.04
2023-08-07T10:29:06.592Z,13.03
2023-08-07T10:30:06.591Z,13.01
2023-08-07T10:31:06.576Z,13.03
2023-08-07T10:32:06.584Z,13.04
2023-08-07T10:33:06.609Z,13.04
2023-08-07T10:34:06.548Z,13.04
2023-08-07T10:35:06.629Z,13.01
2023-08-07T10:36:06.532Z,12.98
2023-08-07T10:37:06.523Z,12.98
2023-08-07T10:38:06.511Z,12.98
2023-08-07T10:39:06.510Z,12.97
2023-08-07T10:40:06.495Z,12.95
2023-08-07T10:41:06.468Z,12.98
2023-08-07T10:42:06.477Z,12.97
2023-08-07T10:43:06.451Z,12.95
2023-08-07T10:44:06.471Z,12.97
2023-08-07T10:45:06.433Z,12.93
2023-08-07T10:46:06.549Z,12.94
2023-08-07T10:47:06.448Z,12.93
2023-08-07T10:48:06.464Z,12.91
2023-08-07T10:49:06.435Z,12.91
2023-08-07T10:50:06.397Z,12.91
2023-08-07T10:51:06.368Z,12.87
2023-08-07T10:52:06.364Z,12.86
2023-08-07T10:53:06.353Z,12.83
2023-08-07T10:54:06.348Z,12.83
2023-08-07T10:55:06.357Z,12.86
2023-08-07T10:56:06.341Z,12.86
2023-08-07T10:57:06.314Z,12.91
2023-08-07T10:58:06.314Z,12.94
2023-08-07T10:59:06.307Z,12.94
2023-08-07T11:00:06.305Z,12.95
2023-08-07T11:01:06.326Z,12.97
2023-08-07T11:02:06.261Z,12.97
2023-08-07T11:03:06.312Z,13.00
2023-08-07T11:04:06.244Z,13.00
2023-08-07T11:05:06.279Z,13.01
2023-08-07T11:06:06.223Z,13.00
2023-08-07T11:07:06.203Z,12.98
2023-08-07T11:08:06.200Z,13.01
2023-08-07T11:09:06.188Z,13.00
2023-08-07T11:10:06.201Z,13.01
2023-08-07T11:11:06.182Z,13.01
2023-08-07T11:12:06.152Z,13.01
2023-08-07T11:13:06.173Z,13.01
2023-08-07T11:14:07.911Z,13.03
2023-08-07T11:15:06.118Z,13.04
2023-08-07T11:16:06.145Z,13.08
2023-08-07T11:17:06.098Z,13.08
2023-08-07T11:18:06.093Z,13.09
2023-08-07T11:19:06.081Z,13.11
2023-08-07T11:20:06.070Z,13.11
2023-08-07T11:21:06.081Z,13.11
2023-08-07T11:22:06.048Z,13.15
2023-08-07T11:23:06.043Z,13.16
2023-08-07T11:24:06.039Z,13.16
2023-08-07T11:25:06.018Z,13.16
2023-08-07T11:26:06.008Z,13.16
2023-08-07T11:27:06.018Z,13.16
2023-08-07T11:28:05.994Z,13.19
2023-08-07T11:29:05.977Z,13.19
2023-08-07T11:30:05.969Z,13.20
2023-08-07T11:31:06.039Z,13.19
2023-08-07T11:32:06.064Z,13.20
2023-08-07T11:33:05.934Z,13.19
2023-08-07T11:34:05.928Z,13.22
2023-08-07T11:35:05.916Z,13.19
2023-08-07T11:36:05.914Z,13.18
2023-08-07T11:37:05.929Z,13.16
2023-08-07T11:38:05.890Z,13.11
2023-08-07T11:39:05.881Z,13.11
2023-08-07T11:40:05.874Z,13.09
2023-08-07T11:41:05.861Z,13.08
2023-08-07T11:42:05.853Z,13.05
2023-08-07T11:43:05.853Z,13.05
2023-08-07T11:44:05.873Z,13.09
2023-08-07T11:45:05.816Z,13.11
2023-08-07T11:46:05.871Z,13.04
2023-08-07T11:47:05.799Z,13.04
2023-08-07T11:48:05.848Z,13.05
2023-08-07T11:49:05.779Z,13.08
2023-08-07T11:50:05.775Z,13.09
2023-08-07T11:51:05.761Z,13.11
2023-08-07T11:52:05.749Z,13.12
2023-08-07T11:53:05.728Z,13.15
2023-08-07T11:54:05.746Z,13.13
2023-08-07T11:55:05.718Z,13.13
2023-08-07T11:56:05.706Z,13.11
2023-08-07T11:57:05.702Z,13.09
2023-08-07T11:58:05.699Z,13.11
2023-08-07T11:59:05.707Z,13.12
2023-08-07T12:00:05.669Z,13.11
2023-08-07T12:01:05.718Z,13.11
2023-08-07T12:02:05.650Z,13.11
2023-08-07T12:03:05.696Z,13.09
2023-08-07T12:04:05.637Z,13.09
2023-08-07T12:05:05.630Z,13.09
2023-08-07T12:06:05.611Z,13.09
2023-08-07T12:07:05.588Z,13.11
2023-08-07T12:08:05.583Z,13.11
2023-08-07T12:09:05.581Z,13.12
2023-08-07T12:10:05.593Z,13.13
2023-08-07T12:11:05.555Z,13.15
2023-08-07T12:12:05.556Z,13.13
2023-08-07T12:13:05.537Z,13.12
2023-08-07T12:14:05.535Z,13.13
2023-08-07T12:15:05.543Z,13.16
2023-08-07T12:16:05.598Z,13.18
2023-08-07T12:17:05.493Z,13.18
2023-08-07T12:18:05.569Z,13.20
2023-08-07T12:19:05.571Z,13.20
2023-08-07T12:20:05.502Z,13.16
2023-08-07T12:21:05.463Z,13.18
2023-08-07T12:22:05.442Z,13.18
2023-08-07T12:23:05.437Z,13.16
2023-08-07T12:24:05.438Z,13.18
2023-08-07T12:25:05.404Z,13.18
2023-08-07T12:26:05.443Z,13.20
2023-08-07T12:27:05.384Z,13.20
2023-08-07T12:28:05.396Z,13.22
2023-08-07T12:29:05.367Z,13.23
2023-08-07T12:30:05.366Z,13.22
2023-08-07T12:31:05.471Z,13.25
2023-08-07T12:32:05.344Z,13.28
2023-08-07T12:33:05.393Z,13.27
2023-08-07T12:36:05.403Z,13.27
2023-08-07T12:37:05.317Z,13.27
2023-08-07T12:38:05.281Z,13.31
2023-08-07T12:39:05.261Z,13.30
2023-08-07T12:41:05.498Z,13.31
2023-08-07T12:43:05.238Z,13.35
2023-08-07T12:44:05.214Z,13.33
2023-08-07T12:45:05.195Z,13.35
2023-08-07T12:47:05.222Z,13.38
2023-08-07T12:48:05.243Z,13.39
2023-08-07T12:49:05.166Z,13.41
2023-08-07T12:50:05.150Z,13.42
2023-08-07T12:51:05.138Z,13.41
2023-08-07T12:52:05.164Z,13.39
2023-08-07T12:53:05.146Z,13.41
2023-08-07T12:54:05.111Z,13.41
2023-08-07T12:55:05.102Z,13.41
2023-08-07T12:56:05.099Z,13.46
2023-08-07T12:57:05.075Z,13.44
2023-08-07T12:58:05.067Z,13.46